createdAt,value
2023-05-14T00:01:18.724Z,75.34
2023-05-14T00:03:45.228Z,73.83
2023-05-14T00:06:11.717Z,76.27
2023-05-14T00:08:39.412Z,75.10
2023-05-14T00:11:05.869Z,74.92
2023-05-14T00:13:32.274Z,76.96
2023-05-14T00:15:58.682Z,76.54
2023-05-14T00:18:25.205Z,76.42
2023-05-14T00:20:51.775Z,75.44
2023-05-14T00:23:18.183Z,75.34
2023-05-14T00:25:45.853Z,76.96
2023-05-14T00:28:12.319Z,77.25
2023-05-14T00:30:39.002Z,75.61
2023-05-14T00:33:05.825Z,77.09
2023-05-14T00:35:32.436Z,75.26
2023-05-14T00:37:58.848Z,74.09
2023-05-14T00:40:26.614Z,74.89
2023-05-14T00:42:55.094Z,74.12
2023-05-14T00:45:22.021Z,74.41
2023-05-14T00:47:48.756Z,75.63
2023-05-14T00:50:16.341Z,74.25
2023-05-14T00:52:42.855Z,75.80
2023-05-14T00:55:10.613Z,76.15
2023-05-14T00:57:37.533Z,75.28
2023-05-14T01:00:06.936Z,74.18
2023-05-14T01:02:33.619Z,73.24
2023-05-14T01:05:00.490Z,77.37
2023-05-14T01:07:39.232Z,74.93
2023-05-14T01:10:11.628Z,75.90
2023-05-14T01:12:47.270Z,74.70
2023-05-14T01:15:20.841Z,74.14
2023-05-14T01:17:53.653Z,77.26
2023-05-14T01:20:20.517Z,77.47
2023-05-14T01:22:49.024Z,75.14
2023-05-14T01:25:15.472Z,76.52
2023-05-14T01:27:49.211Z,75.37
2023-05-14T01:30:21.833Z,74.50
2023-05-14T01:32:53.624Z,76.07
2023-05-14T01:35:22.284Z,76.77
2023-05-14T01:37:51.051Z,74.58
2023-05-14T01:40:17.782Z,76.90
2023-05-14T01:42:45.305Z,77.34
2023-05-14T01:45:11.970Z,76.36
2023-05-14T01:47:38.429Z,78.79
2023-05-14T01:50:05.883Z,75.62
2023-05-14T01:52:32.304Z,76.45
2023-05-14T01:55:00.286Z,76.06
2023-05-14T01:57:26.758Z,73.64
2023-05-14T01:59:53.282Z,75.98
2023-05-14T02:02:20.089Z,76.43
2023-05-14T02:04:46.564Z,75.03
2023-05-14T02:07:13.003Z,75.48
2023-05-14T02:09:39.419Z,75.77
2023-05-14T02:12:08.511Z,75.88
2023-05-14T02:14:35.085Z,78.30
2023-05-14T02:17:01.523Z,75.54
2023-05-14T02:19:27.932Z,76.11
2023-05-14T02:21:54.347Z,76.65
2023-05-14T02:24:20.976Z,75.56
2023-05-14T02:26:47.541Z,75.49
2023-05-14T02:29:15.300Z,75.61
2023-05-14T02:31:41.748Z,78.16
2023-05-14T02:34:08.479Z,76.90
2023-05-14T02:36:34.913Z,74.75
2023-05-14T02:39:01.332Z,76.35
2023-05-14T02:41:27.760Z,75.07
2023-05-14T02:43:54.434Z,75.37
2023-05-14T02:46:22.493Z,76.07
2023-05-14T02:48:48.916Z,78.22
2023-05-14T02:51:15.338Z,75.08
2023-05-14T02:53:41.878Z,76.68
2023-05-14T02:56:08.312Z,76.39
2023-05-14T02:58:34.776Z,77.76
2023-05-14T03:01:01.389Z,76.37
2023-05-14T03:03:30.590Z,77.79
2023-05-14T03:05:57.558Z,76.19
2023-05-14T03:08:24.146Z,75.71
2023-05-14T03:10:50.596Z,78.02
2023-05-14T03:13:17.022Z,76.77
2023-05-14T03:15:43.476Z,76.28
2023-05-14T03:18:10.133Z,77.38
2023-05-14T03:20:37.972Z,77.40
2023-05-14T03:23:05.548Z,76.72
2023-05-14T03:25:32.016Z,76.47
2023-05-14T03:27:58.399Z,79.16
2023-05-14T03:30:25.080Z,76.77
2023-05-14T03:32:52.130Z,77.05
2023-05-14T03:35:18.854Z,75.36
2023-05-14T03:37:46.661Z,75.88
2023-05-14T03:40:13.078Z,76.42
2023-05-14T03:42:39.433Z,78.36
2023-05-14T03:45:07.344Z,76.90
2023-05-14T03:47:34.111Z,77.55
2023-05-14T03:50:01.124Z,77.85
2023-05-14T03:52:27.630Z,77.27
2023-05-14T03:54:55.337Z,76.03
2023-05-14T03:57:21.798Z,77.65
2023-05-14T03:59:48.249Z,76.63
2023-05-14T04:02:14.890Z,78.36
2023-05-14T04:04:41.540Z,79.20
2023-05-14T04:07:07.987Z,77.07
2023-05-14T04:09:34.662Z,77.85
2023-05-14T04:12:02.371Z,76.59
2023-05-14T04:14:29.686Z,76.16
2023-05-14T04:16:56.118Z,77.50
2023-05-14T04:19:22.553Z,77.44
2023-05-14T04:21:49.205Z,77.26
2023-05-14T04:24:17.070Z,77.64
2023-05-14T04:26:43.463Z,78.27
2023-05-14T04:29:11.267Z,77.61
2023-05-14T04:31:37.726Z,75.79
2023-05-14T04:34:04.170Z,75.84
2023-05-14T04:36:31.584Z,76.36
2023-05-14T04:38:58.029Z,77.72
2023-05-14T04:41:24.441Z,79.72
2023-05-14T04:43:50.856Z,77.16
2023-05-14T04:46:18.660Z,76.15
2023-05-14T04:48:45.038Z,77.93
2023-05-14T04:51:11.492Z,77.27
2023-05-14T04:53:37.881Z,75.91
2023-05-14T04:56:04.371Z,75.31
2023-05-14T04:58:32.137Z,73.97
2023-05-14T05:01:00.197Z,75.45
2023-05-14T05:03:28.158Z,75.28
2023-05-14T05:05:54.652Z,75.48
2023-05-14T05:08:21.024Z,77.32
2023-05-14T05:10:47.415Z,76.23
2023-05-14T05:13:13.872Z,77.68
2023-05-14T05:15:40.286Z,77.64
2023-05-14T05:18:06.937Z,74.51
2023-05-14T05:20:34.776Z,73.74
2023-05-14T05:23:01.230Z,72.11
2023-05-14T05:25:27.736Z,70.76
2023-05-14T05:27:54.136Z,68.81
2023-05-14T05:30:20.540Z,64.67
2023-05-14T05:32:47.006Z,59.69
2023-05-14T05:35:13.484Z,56.75
2023-05-14T05:37:41.246Z,54.16
2023-05-14T05:40:08.867Z,50.27
2023-05-14T05:42:35.336Z,46.51
2023-05-14T05:45:01.802Z,47.81
2023-05-14T05:47:28.240Z,45.86
2023-05-14T05:49:54.682Z,44.12
2023-05-14T05:52:21.218Z,42.87
2023-05-14T05:54:48.981Z,47.33
2023-05-14T05:57:15.339Z,45.55
2023-05-14T05:59:41.738Z,46.16
2023-05-14T06:02:08.205Z,44.57
2023-05-14T06:04:34.739Z,45.05
2023-05-14T06:07:01.461Z,48.06
2023-05-14T06:09:27.884Z,43.85
2023-05-14T06:11:55.592Z,47.39
2023-05-14T06:14:22.024Z,47.58
2023-05-14T06:16:48.496Z,47.16
2023-05-14T06:19:14.946Z,46.68
2023-05-14T06:21:41.428Z,48.27
2023-05-14T06:24:08.220Z,51.85
2023-05-14T06:26:34.747Z,49.34
2023-05-14T06:29:02.721Z,48.16
2023-05-14T06:31:29.204Z,54.36
2023-05-14T06:33:55.660Z,51.71
2023-05-14T06:36:22.175Z,50.02
2023-05-14T06:38:48.691Z,52.03
2023-05-14T06:41:15.092Z,55.69
2023-05-14T06:43:41.501Z,55.09
2023-05-14T06:46:09.215Z,50.76
2023-05-14T06:48:35.713Z,54.99
2023-05-14T06:51:02.111Z,57.24
2023-05-14T06:53:28.613Z,49.39
2023-05-14T06:55:55.020Z,51.62
2023-05-14T06:58:21.477Z,53.04
2023-05-14T07:00:48.162Z,56.43
2023-05-14T07:03:16.158Z,56.78
2023-05-14T07:05:42.605Z,50.39
2023-05-14T07:08:08.963Z,51.03
2023-05-14T07:10:35.465Z,55.50
2023-05-14T07:13:01.886Z,57.70
2023-05-14T07:15:28.302Z,52.42
2023-05-14T07:17:54.763Z,50.25
2023-05-14T07:20:23.151Z,49.81
2023-05-14T07:22:49.858Z,47.57
2023-05-14T07:25:16.484Z,55.34
2023-05-14T07:27:42.932Z,55.04
2023-05-14T07:30:09.810Z,50.86
2023-05-14T07:32:36.267Z,49.09
2023-05-14T07:35:02.730Z,58.13
2023-05-14T07:37:30.545Z,49.02
2023-05-14T07:39:56.993Z,54.58
2023-05-14T07:42:35.329Z,49.89
2023-05-14T07:45:03.202Z,50.98
2023-05-14T07:47:29.786Z,53.82
2023-05-14T07:49:57.212Z,49.18
2023-05-14T07:52:24.170Z,49.76
2023-05-14T07:54:52.166Z,54.07
2023-05-14T07:57:19.010Z,50.06
2023-05-14T07:59:45.552Z,49.33
2023-05-14T08:02:12.051Z,49.67
2023-05-14T08:04:38.697Z,49.07
2023-05-14T08:07:07.063Z,49.31
2023-05-14T08:09:33.504Z,51.90
2023-05-14T08:12:01.286Z,47.27
2023-05-14T08:14:27.783Z,52.20
2023-05-14T08:16:54.559Z,50.99
2023-05-14T08:19:21.324Z,50.96
2023-05-14T08:21:48.260Z,49.56
2023-05-14T08:24:20.859Z,45.47
2023-05-14T08:26:47.240Z,48.95
2023-05-14T08:29:16.488Z,45.00
2023-05-14T08:31:43.507Z,45.46
2023-05-14T08:34:10.055Z,47.15
2023-05-14T08:36:36.452Z,42.28
2023-05-14T08:39:03.006Z,45.90
2023-05-14T08:41:29.864Z,46.59
2023-05-14T08:44:06.213Z,47.29
2023-05-14T08:46:36.128Z,51.52
2023-05-14T08:49:13.371Z,45.37
2023-05-14T08:51:40.174Z,46.34
2023-05-14T08:54:06.569Z,47.06
2023-05-14T08:56:33.489Z,46.72
2023-05-14T08:58:59.897Z,45.68
2023-05-14T09:01:26.933Z,46.28
2023-05-14T09:03:54.838Z,51.17
2023-05-14T09:06:21.840Z,50.64
2023-05-14T09:08:48.407Z,42.18
2023-05-14T09:11:14.789Z,46.24
2023-05-14T09:13:41.262Z,42.76
2023-05-14T09:16:07.767Z,41.76
2023-05-14T09:18:36.016Z,48.07
2023-05-14T09:21:04.481Z,45.15
2023-05-14T09:23:32.645Z,46.46
2023-05-14T09:25:59.055Z,46.50
2023-05-14T09:28:25.702Z,43.42
2023-05-14T09:30:52.239Z,44.14
2023-05-14T09:33:26.251Z,43.82
2023-05-14T09:35:57.633Z,52.52
2023-05-14T09:38:29.078Z,47.24
2023-05-14T09:40:55.532Z,46.46
2023-05-14T09:43:21.915Z,48.13
2023-05-14T09:45:48.468Z,51.94
2023-05-14T09:48:14.969Z,46.55
2023-05-14T09:50:42.327Z,44.46
2023-05-14T09:53:09.364Z,49.10
2023-05-14T09:55:37.904Z,50.67
2023-05-14T09:58:04.806Z,45.44
2023-05-14T10:00:31.969Z,47.69
2023-05-14T10:02:59.191Z,48.68
2023-05-14T10:05:25.801Z,47.59
2023-05-14T10:07:57.013Z,54.01
2023-05-14T10:10:28.989Z,47.22
2023-05-14T10:13:02.506Z,47.98
2023-05-14T10:15:36.620Z,53.74
2023-05-14T10:18:07.713Z,49.71
2023-05-14T10:20:34.830Z,52.80
2023-05-14T10:23:18.102Z,46.59
2023-05-14T10:25:45.435Z,48.90
2023-05-14T10:28:13.293Z,51.13
2023-05-14T10:30:44.285Z,51.04
2023-05-14T10:33:12.513Z,53.37
2023-05-14T10:35:54.840Z,50.86
2023-05-14T10:38:23.287Z,50.87
2023-05-14T10:40:51.537Z,51.42
2023-05-14T10:43:23.381Z,52.79
2023-05-14T10:45:49.741Z,57.43
2023-05-14T10:48:16.327Z,55.96
2023-05-14T10:50:43.447Z,53.13
2023-05-14T10:53:13.034Z,50.51
2023-05-14T10:55:39.472Z,54.73
2023-05-14T10:58:06.010Z,51.40
2023-05-14T11:00:35.369Z,46.12
2023-05-14T11:03:05.040Z,51.49
2023-05-14T11:05:32.232Z,46.10
2023-05-14T11:07:59.704Z,45.67
2023-05-14T11:10:27.342Z,47.30
2023-05-14T11:12:53.763Z,48.00
2023-05-14T11:15:21.998Z,45.95
2023-05-14T11:17:53.293Z,45.80
2023-05-14T11:20:20.712Z,49.03
2023-05-14T11:22:48.224Z,46.19
2023-05-14T11:25:15.343Z,47.67
2023-05-14T11:27:43.636Z,47.54
2023-05-14T11:30:13.562Z,46.24
2023-05-14T11:32:40.124Z,51.24
2023-05-14T11:35:08.638Z,47.60
2023-05-14T11:37:35.150Z,50.09
2023-05-14T11:40:01.975Z,50.79
2023-05-14T11:42:28.423Z,50.35
2023-05-14T11:44:54.874Z,50.47
2023-05-14T11:47:22.129Z,51.32
2023-05-14T11:49:51.190Z,49.52
2023-05-14T11:52:31.072Z,48.11
2023-05-14T11:57:51.660Z,51.43
2023-05-14T12:00:19.195Z,51.06
2023-05-14T12:02:47.984Z,51.16
2023-05-14T12:05:14.462Z,51.32
2023-05-14T12:07:44.462Z,49.74
2023-05-14T12:10:12.078Z,52.80
2023-05-14T12:12:38.516Z,49.62
2023-05-14T12:15:11.342Z,47.95
2023-05-14T12:17:37.924Z,54.40
2023-05-14T12:20:07.955Z,53.80
2023-05-14T12:22:36.866Z,50.94
2023-05-14T12:25:11.438Z,50.21
2023-05-14T12:27:37.856Z,48.19
2023-05-14T12:32:37.733Z,49.83
2023-05-14T12:35:05.047Z,49.15
2023-05-14T12:37:31.706Z,49.21
2023-05-14T12:39:58.110Z,52.35
2023-05-14T12:42:25.876Z,50.32
2023-05-14T12:44:52.267Z,47.24
2023-05-14T12:47:19.094Z,49.24
2023-05-14T12:49:45.608Z,49.39
2023-05-14T12:54:42.934Z,45.66
2023-05-14T12:57:09.639Z,47.62
2023-05-14T12:59:37.478Z,44.56
2023-05-14T13:02:03.911Z,44.96
2023-05-14T13:04:30.415Z,49.42
2023-05-14T13:06:56.935Z,48.96
2023-05-14T13:09:23.379Z,45.76
2023-05-14T13:11:49.738Z,44.46
2023-05-14T13:14:17.046Z,45.09
2023-05-14T13:16:46.012Z,45.32
2023-05-14T13:19:12.550Z,45.37
2023-05-14T13:21:39.008Z,48.08
2023-05-14T13:24:05.880Z,49.48
2023-05-14T13:26:32.340Z,49.46
2023-05-14T13:28:58.745Z,46.31
2023-05-14T13:31:25.233Z,47.94
2023-05-14T13:33:52.979Z,45.54
2023-05-14T13:36:19.435Z,48.57
2023-05-14T13:38:45.866Z,46.96
2023-05-14T13:41:12.322Z,49.66
2023-05-14T13:43:38.769Z,49.83
2023-05-14T13:46:05.689Z,46.83
2023-05-14T13:48:32.344Z,50.78
2023-05-14T13:51:00.087Z,47.71
2023-05-14T13:53:29.307Z,47.38
2023-05-14T13:55:55.711Z,47.22
2023-05-14T13:58:22.829Z,47.49
2023-05-14T14:00:49.348Z,47.13
2023-05-14T14:03:15.759Z,48.95
2023-05-14T14:05:42.246Z,48.94
2023-05-14T14:08:22.716Z,48.07
2023-05-14T14:10:50.334Z,51.03
2023-05-14T14:13:16.736Z,49.93
2023-05-14T14:15:43.285Z,47.14
2023-05-14T14:18:09.703Z,49.80
2023-05-14T14:20:36.256Z,50.23
2023-05-14T14:23:02.726Z,49.52
2023-05-14T14:25:30.633Z,48.46
2023-05-14T14:27:57.160Z,47.16
2023-05-14T14:30:23.753Z,46.93
2023-05-14T14:32:50.766Z,45.93
2023-05-14T14:35:18.762Z,49.54
2023-05-14T14:37:46.241Z,49.02
2023-05-14T14:40:12.802Z,46.54
2023-05-14T14:42:40.548Z,44.33
2023-05-14T14:45:07.824Z,42.20
2023-05-14T14:47:34.364Z,41.45
2023-05-14T14:50:01.001Z,42.26
2023-05-14T14:52:27.978Z,45.85
2023-05-14T14:54:54.966Z,43.40
2023-05-14T14:57:21.426Z,43.71
2023-05-14T14:59:49.267Z,42.71
2023-05-14T15:02:15.974Z,45.26
2023-05-14T15:04:42.505Z,44.56
2023-05-14T15:07:09.200Z,48.31
2023-05-14T15:09:35.708Z,46.86
2023-05-14T15:12:02.209Z,48.46
2023-05-14T15:14:28.853Z,47.79
2023-05-14T15:16:56.634Z,49.70
2023-05-14T15:19:23.210Z,51.03
2023-05-14T15:21:49.755Z,50.33
2023-05-14T15:24:16.236Z,48.91
2023-05-14T15:26:42.790Z,52.15
2023-05-14T15:29:09.263Z,50.41
2023-05-14T15:31:35.834Z,49.67
2023-05-14T15:34:03.628Z,50.46
2023-05-14T15:36:32.840Z,49.97
2023-05-14T15:38:59.678Z,48.11
2023-05-14T15:41:26.148Z,49.54
2023-05-14T15:43:52.592Z,54.62
2023-05-14T15:46:19.039Z,51.95
2023-05-14T15:48:45.543Z,49.55
2023-05-14T15:51:13.804Z,53.64
2023-05-14T15:53:40.324Z,48.59
2023-05-14T15:56:07.432Z,50.72
2023-05-14T15:58:33.869Z,54.14
2023-05-14T16:01:00.299Z,53.46
2023-05-14T16:03:26.797Z,49.50
2023-05-14T16:05:53.362Z,52.46
2023-05-14T16:08:21.129Z,51.56
2023-05-14T16:10:47.538Z,49.61
2023-05-14T16:13:14.051Z,53.80
2023-05-14T16:15:40.607Z,50.75
2023-05-14T16:18:07.109Z,52.21
2023-05-14T16:20:36.205Z,51.52
2023-05-14T16:23:05.286Z,51.32
2023-05-14T16:25:33.225Z,50.56
2023-05-14T16:28:00.307Z,49.93
2023-05-14T16:30:26.994Z,53.08
2023-05-14T16:32:53.515Z,51.97
2023-05-14T16:35:19.960Z,49.19
2023-05-14T16:37:46.451Z,48.51
2023-05-14T16:40:13.527Z,48.52
2023-05-14T16:42:41.531Z,52.04
2023-05-14T16:45:09.124Z,51.15
2023-05-14T16:47:35.674Z,51.13
2023-05-14T16:50:04.076Z,50.66
2023-05-14T16:52:30.519Z,51.67
2023-05-14T16:54:56.941Z,50.62
2023-05-14T16:57:23.310Z,51.16
2023-05-14T16:59:52.846Z,50.49
2023-05-14T17:02:19.446Z,52.81
2023-05-14T17:04:45.991Z,49.97
2023-05-14T17:07:12.504Z,49.87
2023-05-14T17:09:38.883Z,51.53
2023-05-14T17:12:06.238Z,50.48
2023-05-14T17:14:32.698Z,54.02
2023-05-14T17:17:00.468Z,49.63
2023-05-14T17:19:26.846Z,49.85
2023-05-14T17:21:53.261Z,50.22
2023-05-14T17:24:19.795Z,51.36
2023-05-14T17:26:46.269Z,53.48
2023-05-14T17:29:12.702Z,57.74
2023-05-14T17:31:39.202Z,54.25
2023-05-14T17:34:07.021Z,58.46
2023-05-14T17:36:33.540Z,55.22
2023-05-14T17:39:00.161Z,55.78
2023-05-14T17:41:26.572Z,56.08
2023-05-14T17:43:53.064Z,56.47
2023-05-14T17:46:19.521Z,56.40
2023-05-14T17:48:46.838Z,55.92
2023-05-14T17:51:17.792Z,56.79
2023-05-14T17:53:44.230Z,57.38
2023-05-14T17:56:10.806Z,57.02
2023-05-14T17:58:40.007Z,57.03
2023-05-14T18:01:09.431Z,58.76
2023-05-14T18:03:35.924Z,59.81
2023-05-14T18:06:05.572Z,62.26
2023-05-14T18:08:33.358Z,60.42
2023-05-14T18:10:59.858Z,60.40
2023-05-14T18:13:26.340Z,61.78
2023-05-14T18:15:53.005Z,60.23
2023-05-14T18:18:19.682Z,61.61
2023-05-14T18:20:46.064Z,60.82
2023-05-14T18:23:12.448Z,64.44
2023-05-14T18:25:40.190Z,63.99
2023-05-14T18:28:06.699Z,61.99
2023-05-14T18:30:33.140Z,65.60
2023-05-14T18:32:59.694Z,67.78
2023-05-14T18:35:26.428Z,66.71
2023-05-14T18:37:53.585Z,64.41
2023-05-14T18:40:20.192Z,67.16
2023-05-14T18:42:47.924Z,69.15
2023-05-14T18:45:14.442Z,66.32
2023-05-14T18:47:41.168Z,66.58
2023-05-14T18:50:08.518Z,66.07
2023-05-14T18:52:35.048Z,69.04
2023-05-14T18:55:01.467Z,65.81
2023-05-14T18:57:28.037Z,66.65
2023-05-14T18:59:55.747Z,69.08
2023-05-14T19:02:22.244Z,68.01
2023-05-14T19:04:52.796Z,70.54
2023-05-14T19:07:19.798Z,66.11
2023-05-14T19:09:46.289Z,72.26
2023-05-14T19:12:13.142Z,68.13
2023-05-14T19:14:39.629Z,71.87
2023-05-14T19:17:07.463Z,71.01
2023-05-14T19:19:34.029Z,71.10
2023-05-14T19:22:00.464Z,74.31
2023-05-14T19:24:26.919Z,73.16
2023-05-14T19:26:53.334Z,73.61
2023-05-14T19:29:19.793Z,72.70
2023-05-14T19:31:46.245Z,73.84
2023-05-14T19:34:14.071Z,75.44
2023-05-14T19:36:40.550Z,71.39
2023-05-14T19:39:07.154Z,73.59
2023-05-14T19:41:33.645Z,73.15
2023-05-14T19:44:00.109Z,70.51
2023-05-14T19:46:26.622Z,72.81
2023-05-14T19:48:53.025Z,70.56
2023-05-14T19:51:20.821Z,75.02
2023-05-14T19:53:47.202Z,74.99
2023-05-14T19:56:13.653Z,71.63
2023-05-14T19:58:40.144Z,74.40
2023-05-14T20:01:06.634Z,73.03
2023-05-14T20:03:32.998Z,74.21
2023-05-14T20:05:59.465Z,72.63
2023-05-14T20:08:27.281Z,75.21
2023-05-14T20:10:53.706Z,75.61
2023-05-14T20:13:20.552Z,76.14
2023-05-14T20:15:47.460Z,76.60
2023-05-14T20:18:17.024Z,76.39
2023-05-14T20:20:43.391Z,76.70
2023-05-14T20:23:09.884Z,76.03
2023-05-14T20:25:37.622Z,76.70
2023-05-14T20:28:04.208Z,78.15
2023-05-14T20:30:30.817Z,77.61
2023-05-14T20:32:57.414Z,77.40
2023-05-14T20:35:24.203Z,76.03
2023-05-14T20:37:50.836Z,75.93
2023-05-14T20:40:17.558Z,76.44
2023-05-14T20:42:45.339Z,76.07
2023-05-14T20:45:11.793Z,77.06
2023-05-14T20:47:38.348Z,77.76
2023-05-14T20:50:05.788Z,79.57
2023-05-14T20:52:32.209Z,78.34
2023-05-14T20:55:01.415Z,78.81
2023-05-14T20:57:28.412Z,78.27
2023-05-14T20:59:56.164Z,81.27
2023-05-14T21:02:22.973Z,80.25
2023-05-14T21:04:49.589Z,81.09
2023-05-14T21:07:16.118Z,81.09
2023-05-14T21:09:42.544Z,79.28
2023-05-14T21:12:09.694Z,80.24
2023-05-14T21:14:36.110Z,79.35
2023-05-14T21:17:03.966Z,80.09
2023-05-14T21:19:30.403Z,79.81
2023-05-14T21:21:56.788Z,79.21
2023-05-14T21:24:23.187Z,80.87
2023-05-14T21:26:50.639Z,79.96
2023-05-14T21:29:18.085Z,80.46
2023-05-14T21:31:44.506Z,82.47
2023-05-14T21:34:12.300Z,81.68
2023-05-14T21:36:38.773Z,81.33
2023-05-14T21:39:05.258Z,81.85
2023-05-14T21:41:32.041Z,82.55
2023-05-14T21:43:58.470Z,82.43
2023-05-14T21:46:25.089Z,83.61
2023-05-14T21:48:51.677Z,83.71
2023-05-14T21:51:19.443Z,84.04
2023-05-14T21:53:45.857Z,82.53
2023-05-14T21:56:12.245Z,83.43
2023-05-14T21:58:38.701Z,83.91
2023-05-14T22:01:05.359Z,83.00
2023-05-14T22:03:31.781Z,84.01
2023-05-14T22:05:58.236Z,86.18
2023-05-14T22:08:26.035Z,84.55
2023-05-14T22:10:52.503Z,85.35
2023-05-14T22:13:19.112Z,85.67
2023-05-14T22:15:45.621Z,85.75
2023-05-14T22:18:12.114Z,86.19
2023-05-14T22:20:38.617Z,88.06
2023-05-14T22:23:05.046Z,88.33
2023-05-14T22:25:32.859Z,87.44
2023-05-14T22:27:59.301Z,86.03
2023-05-14T22:30:25.751Z,86.42
2023-05-14T22:32:52.805Z,85.58
2023-05-14T22:35:19.208Z,84.85
2023-05-14T22:37:45.631Z,86.70
2023-05-14T22:40:13.035Z,86.60
2023-05-14T22:42:40.766Z,86.08
2023-05-14T22:45:08.267Z,86.27
2023-05-14T22:47:34.724Z,85.55
2023-05-14T22:50:01.112Z,85.56
2023-05-14T22:52:27.535Z,86.19
2023-05-14T22:54:53.936Z,87.23
2023-05-14T22:57:20.361Z,86.37
2023-05-14T22:59:48.076Z,88.31
2023-05-14T23:02:14.519Z,88.69
2023-05-14T23:04:41.108Z,89.33
2023-05-14T23:07:07.614Z,90.27
2023-05-14T23:09:34.058Z,89.75
2023-05-14T23:12:00.497Z,89.03
2023-05-14T23:14:27.101Z,87.48
2023-05-14T23:16:54.834Z,88.46
2023-05-14T23:19:23.461Z,89.17
2023-05-14T23:21:49.928Z,88.68
2023-05-14T23:24:16.333Z,89.52
2023-05-14T23:26:42.912Z,89.01
2023-05-14T23:29:09.384Z,90.99
2023-05-14T23:31:35.886Z,89.16
2023-05-14T23:34:03.681Z,90.23
2023-05-14T23:36:30.190Z,89.82
2023-05-14T23:38:56.948Z,89.75
2023-05-14T23:41:23.397Z,89.41
2023-05-14T23:43:49.834Z,88.41
2023-05-14T23:46:16.421Z,89.25
2023-05-14T23:48:43.190Z,89.14
2023-05-14T23:51:11.441Z,90.69
2023-05-14T23:53:37.886Z,89.71
2023-05-14T23:56:04.386Z,90.37
2023-05-14T23:58:30.926Z,91.21
